Time;durP1;ratioP1;P1;durP2;ratioP2;P2;SDS_P1;SDS_P2;PMS_P1;PMS_P2;Temp;Humidity;BMP_temperature;BMP_pressure;BME280_temperature;BME280_humidity;BME280_pressure;Samples;Min_cycle;Max_cycle;Signal;HPM_P1;HPM_P2
2022/02/02 00:01:15;;;;;;;40.23;6.13;;;;;;;11.97;100.00;101365.22;4975191;28;20043;-68
2022/02/02 00:03:46;;;;;;;45.80;8.05;;;;;;;12.25;100.00;101373.34;4975043;28;20292;-68
2022/02/02 00:06:21;;;;;;;53.58;7.32;;;;;;;12.14;100.00;101357.78;4957492;28;20039;-68
2022/02/02 00:09:10;;;;;;;41.83;6.15;;;;;;;12.21;100.00;101368.56;4944490;28;20045;-66
2022/02/02 00:16:49;;;;;;;49.92;7.30;;;;;;;12.26;100.00;101380.38;4974941;28;20043;-68
2022/02/02 00:22:04;;;;;;;40.55;6.10;;;;;;;12.32;100.00;101389.50;4974303;28;20039;-67
2022/02/02 00:27:25;;;;;;;46.97;7.28;;;;;;;12.52;100.00;101370.88;4945132;28;20499;-68
2022/02/02 00:29:57;;;;;;;45.25;6.75;;;;;;;12.44;100.00;101387.94;4957514;28;20038;-68
2022/02/02 00:34:57;;;;;;;48.80;7.63;;;;;;;12.37;100.00;101387.06;4957507;28;20043;-67
2022/02/02 00:37:23;;;;;;;45.17;8.50;;;;;;;12.37;100.00;101387.06;4957569;28;20034;-68
2022/02/02 00:39:48;;;;;;;51.47;7.13;;;;;;;12.23;100.00;101390.66;4974732;28;20039;-69
2022/02/02 00:42:14;;;;;;;53.73;7.40;;;;;;;12.64;100.00;101397.19;4957299;28;20043;-69
2022/02/02 00:44:47;;;;;;;48.57;7.60;;;;;;;12.73;100.00;101396.00;4975361;28;20621;-68
2022/02/02 00:47:20;;;;;;;47.17;7.13;;;;;;;12.53;100.00;101393.97;4974731;28;20039;-68
2022/02/02 00:49:47;;;;;;;44.85;6.43;;;;;;;12.68;100.00;101399.25;4974555;28;20408;-67
2022/02/02 00:52:13;;;;;;;47.53;6.85;;;;;;;12.79;100.00;101386.34;4977047;28;20045;-68
2022/02/02 00:54:38;;;;;;;56.05;7.70;;;;;;;12.32;100.00;101384.13;4979223;28;20042;-66
2022/02/02 00:57:04;;;;;;;33.80;5.93;;;;;;;12.74;100.00;101406.53;4979109;28;20042;-69
2022/02/02 00:59:30;;;;;;;39.45;7.38;;;;;;;12.55;100.00;101401.84;4979429;28;20082;-69
2022/02/02 01:01:55;;;;;;;46.13;6.80;;;;;;;12.35;100.00;101405.19;4978828;28;20053;-68
2022/02/02 01:04:21;;;;;;;49.27;7.67;;;;;;;12.29;100.00;101416.72;4978809;28;20090;-68
2022/02/02 01:07:00;;;;;;;40.88;6.82;;;;;;;12.56;100.00;101430.34;4978411;28;20047;-68
2022/02/02 01:09:38;;;;;;;34.55;6.85;;;;;;;12.30;100.00;101418.38;4963205;28;20395;-69
2022/02/02 01:12:31;;;;;;;59.28;8.55;;;;;;;12.53;100.00;101417.31;4978255;28;20053;-68
2022/02/02 01:18:13;;;;;;;43.17;7.03;;;;;;;12.37;100.00;101435.34;4956108;28;20047;-68
2022/02/02 01:20:47;;;;;;;48.42;7.30;;;;;;;11.99;100.00;101423.00;4978203;28;20043;-65
2022/02/02 01:28:33;;;;;;;34.92;6.90;;;;;;;12.39;100.00;101441.34;4978032;28;20042;-66
2022/02/02 01:31:00;;;;;;;34.53;5.90;;;;;;;12.40;100.00;101426.09;4977726;28;20043;-67
2022/02/02 01:33:26;;;;;;;47.80;9.10;;;;;;;12.42;100.00;101437.44;4944985;28;20495;-68
2022/02/02 01:35:52;;;;;;;47.67;7.20;;;;;;;12.29;100.00;101435.47;4976544;28;20117;-67
2022/02/02 01:38:18;;;;;;;42.00;6.05;;;;;;;12.39;100.00;101437.84;4977526;28;20066;-68
2022/02/02 01:40:49;;;;;;;49.80;7.43;;;;;;;12.51;100.00;101449.69;4960489;28;20050;-68
2022/02/02 01:43:20;;;;;;;47.42;7.38;;;;;;;12.43;100.00;101429.19;4959898;28;20137;-67
2022/02/02 01:45:56;;;;;;;50.05;8.55;;;;;;;12.23;100.00;101442.44;4945902;28;20058;-68
2022/02/02 01:56:05;;;;;;;41.67;6.43;;;;;;;11.89;100.00;101452.78;4977660;28;20430;-68
2022/02/02 02:01:10;;;;;;;59.65;7.65;;;;;;;12.44;100.00;101489.88;4977672;28;20484;-68
2022/02/02 02:03:37;;;;;;;52.50;7.13;;;;;;;12.45;100.00;101472.75;4977202;28;20052;-68
2022/02/02 02:06:03;;;;;;;42.05;6.18;;;;;;;12.38;100.00;101479.09;4977055;28;20042;-68
2022/02/02 02:08:29;;;;;;;55.97;8.95;;;;;;;12.21;100.00;101484.69;4976929;28;20046;-68
2022/02/02 02:10:54;;;;;;;50.28;7.75;;;;;;;12.46;100.00;101465.53;4959757;28;20041;-68
2022/02/02 02:14:04;;;;;;;46.37;6.93;;;;;;;12.19;100.00;101463.44;4976859;28;20439;-68
2022/02/02 02:16:06;;;;;;;49.05;6.88;;;;;;;12.27;100.00;101478.56;4976755;28;20379;-68
2022/02/02 02:18:31;;;;;;;49.00;7.27;;;;;;;12.16;100.00;101471.03;4959954;28;20035;-68
2022/02/02 02:20:57;;;;;;;49.50;6.40;;;;;;;12.15;100.00;101443.38;4959634;28;20288;-68
2022/02/02 02:23:24;;;;;;;48.28;6.35;;;;;;;12.28;100.00;101450.72;4976709;28;20054;-68
2022/02/02 02:25:50;;;;;;;42.17;8.98;;;;;;;12.24;100.00;101451.31;4975639;28;20038;-67
2022/02/02 02:30:55;;;;;;;45.13;6.85;;;;;;;12.19;100.00;101466.09;4976647;28;20034;-68
2022/02/02 02:36:51;;;;;;;50.95;8.68;;;;;;;12.13;100.00;101458.84;4976815;28;20071;-67
2022/02/02 03:57:53;;;;;;;46.08;6.45;;;;;;;12.39;100.00;101464.66;4975532;28;20047;-68
2022/02/02 04:03:15;;;;;;;45.22;6.82;;;;;;;12.90;100.00;101466.31;4975203;28;20046;-67
2022/02/02 04:05:42;;;;;;;44.22;6.32;;;;;;;12.60;100.00;101482.59;4974341;28;20113;-69
2022/02/02 04:08:27;;;;;;;43.97;7.43;;;;;;;12.88;100.00;101476.41;4957845;28;20392;-67
2022/02/02 04:10:55;;;;;;;48.78;7.20;;;;;;;12.39;100.00;101478.88;4975163;28;20054;-67
2022/02/02 04:51:54;;;;;;;43.25;6.68;;;;;;;12.65;100.00;101501.63;4951339;28;20775;-68
2022/02/02 05:00:29;;;;;;;47.57;7.30;;;;;;;12.41;100.00;101525.13;4943268;28;20074;-67
2022/02/02 05:05:46;;;;;;;47.87;6.67;;;;;;;12.63;100.00;101535.88;4974233;28;20035;-68
2022/02/02 05:50:34;;;;;;;42.53;7.28;;;;;;;12.38;100.00;101564.94;4977313;28;20038;-67
2022/02/02 05:53:00;;;;;;;40.00;8.07;;;;;;;12.22;100.00;101576.69;4976786;28;20047;-68
2022/02/02 05:55:27;;;;;;;46.97;6.53;;;;;;;12.18;100.00;101582.44;4977277;28;20089;-68
2022/02/02 05:57:54;;;;;;;44.40;6.65;;;;;;;12.19;100.00;101578.72;4976299;28;20093;-67
2022/02/02 06:00:19;;;;;;;40.88;7.07;;;;;;;12.50;100.00;101590.22;4976205;28;20034;-67
2022/02/02 06:02:47;;;;;;;43.47;7.43;;;;;;;12.68;100.00;101592.47;4977723;28;20047;-67
2022/02/02 06:05:12;;;;;;;47.80;6.80;;;;;;;12.52;100.00;101598.09;4977640;28;20041;-67
2022/02/02 06:07:41;;;;;;;67.43;9.63;;;;;;;12.22;100.00;101603.50;4977341;28;20031;-68
2022/02/02 06:10:09;;;;;;;46.60;7.30;;;;;;;12.42;100.00;101604.56;4977312;28;20031;-66
2022/02/02 06:12:35;;;;;;;52.70;6.70;;;;;;;12.44;100.00;101601.72;4959665;28;20117;-67
2022/02/02 06:15:08;;;;;;;53.80;6.68;;;;;;;12.50;100.00;101608.19;4976979;28;20122;-68
2022/02/02 06:17:39;;;;;;;37.80;5.82;;;;;;;12.51;100.00;101615.22;4977129;28;20490;-68
2022/02/02 06:20:05;;;;;;;37.30;6.35;;;;;;;12.28;100.00;101608.16;4959745;28;20045;-67
2022/02/02 06:22:34;;;;;;;41.88;8.05;;;;;;;12.45;100.00;101614.94;4976823;28;20035;-68
2022/02/02 06:25:09;;;;;;;48.03;5.85;;;;;;;12.30;100.00;101614.16;4976787;28;20035;-68
2022/02/02 06:27:37;;;;;;;40.90;6.15;;;;;;;11.80;100.00;101614.72;4976779;28;20038;-68
2022/02/02 06:30:08;;;;;;;45.35;6.97;;;;;;;12.09;100.00;101621.09;4976884;28;20089;-68
2022/02/02 06:32:48;;;;;;;43.20;6.43;;;;;;;12.12;100.00;101620.72;4977017;28;20034;-68
2022/02/02 06:35:14;;;;;;;48.17;7.93;;;;;;;12.13;100.00;101611.66;4959696;28;20046;-70
2022/02/02 06:37:41;;;;;;;;;;;;;;;12.07;100.00;101625.81;4943926;28;20042;-68
2022/02/02 06:40:07;;;;;;;36.30;5.55;;;;;;;11.90;100.00;101634.03;4976396;28;19958;-67
2022/02/02 06:42:33;;;;;;;39.15;6.63;;;;;;;11.82;100.00;101634.13;4959468;28;20090;-67
2022/02/02 06:45:00;;;;;;;31.20;5.05;;;;;;;11.94;100.00;101639.84;4959558;28;20074;-67
2022/02/02 06:47:27;;;;;;;35.80;5.15;;;;;;;12.01;100.00;101645.34;4959298;28;20383;-68
2022/02/02 06:50:02;;;;;;;52.78;7.03;;;;;;;11.68;100.00;101646.50;4958853;28;20035;-69
2022/02/02 06:52:35;;;;;;;35.53;5.90;;;;;;;11.65;100.00;101657.56;4976663;28;20046;-68
2022/02/02 06:55:11;;;;;;;47.00;5.97;;;;;;;11.66;100.00;101663.75;4959672;28;20224;-67
2022/02/02 06:57:54;;;;;;;38.15;5.75;;;;;;;11.61;100.00;101657.09;4976234;28;20042;-67
2022/02/02 07:05:36;;;;;;;42.22;6.65;;;;;;;11.89;100.00;101659.16;4976049;28;20387;-67
2022/02/02 07:08:31;;;;;;;45.65;7.57;;;;;;;11.83;100.00;101669.78;4976074;28;20058;-69
2022/02/02 07:31:21;;;;;;;64.32;8.57;;;;;;;11.52;100.00;101679.59;4975717;28;20050;-67
2022/02/02 07:34:07;;;;;;;45.75;7.45;;;;;;;11.84;100.00;101674.13;4958629;28;20053;-68
2022/02/02 07:36:38;;;;;;;45.35;7.18;;;;;;;12.13;100.00;101685.94;4975340;28;20066;-67
2022/02/02 07:39:07;;;;;;;44.80;6.75;;;;;;;12.28;100.00;101697.47;4958049;28;20137;-68
2022/02/02 07:41:36;;;;;;;45.13;7.00;;;;;;;11.59;100.00;101690.44;4975209;28;20035;-67
2022/02/02 07:44:12;;;;;;;55.83;7.97;;;;;;;12.03;100.00;101707.66;4967217;28;20480;-68
2022/02/02 07:46:44;;;;;;;46.65;7.38;;;;;;;12.22;100.00;101721.50;4975255;28;20092;-68
2022/02/02 07:49:11;;;;;;;38.67;7.90;;;;;;;12.31;100.00;101715.03;4958321;28;20101;-66
2022/02/02 07:51:38;;;;;;;49.90;7.90;;;;;;;11.89;100.00;101718.13;4941353;28;20047;-68
2022/02/02 07:54:09;;;;;;;49.25;7.47;;;;;;;11.71;100.00;101712.25;4974907;28;20513;-67
2022/02/02 07:56:43;;;;;;;44.53;7.05;;;;;;;11.89;100.00;101712.75;4975207;28;20034;-68
2022/02/02 07:59:23;;;;;;;51.20;8.10;;;;;;;12.06;100.00;101728.72;4974526;28;20057;-68
2022/02/02 08:01:51;;;;;;;49.72;7.72;;;;;;;11.99;100.00;101727.75;4974773;28;20039;-68
2022/02/02 08:04:18;;;;;;;56.55;7.80;;;;;;;12.16;100.00;101745.38;4941673;28;20181;-67
2022/02/02 08:06:50;;;;;;;35.08;5.80;;;;;;;11.74;100.00;101733.34;4958825;28;20455;-70
2022/02/02 08:09:25;;;;;;;52.80;7.93;;;;;;;12.11;100.00;101730.84;4974945;28;20035;-68
2022/02/02 08:11:52;;;;;;;35.80;6.50;;;;;;;12.17;100.00;101738.16;4974837;28;20046;-67
2022/02/02 08:14:18;;;;;;;57.90;7.55;;;;;;;11.87;100.00;101730.88;4974776;28;20039;-67
2022/02/02 08:16:44;;;;;;;46.88;6.63;;;;;;;12.04;100.00;101744.97;4975414;28;20039;-69
2022/02/02 08:19:09;;;;;;;51.43;7.53;;;;;;;12.30;100.00;101734.84;4975760;28;20394;-69
2022/02/02 08:21:35;;;;;;;45.15;6.47;;;;;;;12.36;100.00;101739.47;4975385;28;20288;-68
2022/02/02 08:24:00;;;;;;;39.63;6.67;;;;;;;12.29;100.00;101738.53;4957935;28;20418;-68
2022/02/02 08:26:26;;;;;;;49.17;7.10;;;;;;;12.16;100.00;101747.22;4958370;28;20047;-68
2022/02/02 08:28:56;;;;;;;46.20;6.43;;;;;;;12.31;100.00;101752.59;4975685;28;20062;-67
2022/02/02 08:31:24;;;;;;;43.45;7.30;;;;;;;12.60;100.00;101761.66;4957522;28;20356;-67
2022/02/02 08:33:52;;;;;;;38.20;6.63;;;;;;;12.61;100.00;101768.69;4957510;28;20542;-68
2022/02/02 08:36:19;;;;;;;40.40;6.88;;;;;;;12.67;100.00;101775.97;4957684;28;20284;-68
2022/02/02 08:38:56;;;;;;;47.22;6.80;;;;;;;13.04;100.00;101782.22;4975678;28;20356;-66
2022/02/02 08:41:30;;;;;;;45.58;7.53;;;;;;;13.20;100.00;101777.66;4959911;28;20046;-69
2022/02/02 08:44:01;;;;;;;49.43;7.20;;;;;;;13.04;100.00;101774.16;4976353;28;20355;-67
2022/02/02 08:46:36;;;;;;;45.87;7.20;;;;;;;12.99;100.00;101784.66;4957689;28;20801;-68
2022/02/02 08:49:06;;;;;;;39.40;6.87;;;;;;;13.00;100.00;101780.94;4942876;28;20816;-67
2022/02/02 08:51:37;;;;;;;45.73;7.80;;;;;;;13.13;100.00;101785.63;4956849;28;20295;-67
2022/02/02 08:59:37;;;;;;;37.13;6.40;;;;;;;13.77;100.00;101804.69;4957041;28;20276;-67
2022/02/02 09:02:07;;;;;;;48.43;6.97;;;;;;;13.73;100.00;101806.09;4957008;28;20294;-70
2022/02/02 09:07:17;;;;;;;48.30;7.73;;;;;;;14.33;100.00;101776.97;4974505;28;20260;-68
2022/02/02 09:35:54;;;;;;;33.33;5.47;;;;;;;17.33;100.00;101818.03;4977542;28;20280;-68
2022/02/02 09:38:19;;;;;;;;;;;;;;;16.88;100.00;101818.00;4961380;28;20070;-68
2022/02/02 09:43:19;;;;;;;33.73;7.00;;;;;;;18.55;90.15;101828.69;4977376;28;20497;-67
2022/02/02 09:45:47;;;;;;;40.60;6.10;;;;;;;18.78;86.82;101825.31;4960839;28;20669;-67
2022/02/02 09:48:23;;;;;;;24.37;5.10;;;;;;;19.40;81.79;101828.94;4977598;28;20279;-67
2022/02/02 09:50:54;;;;;;;33.03;6.40;;;;;;;19.89;76.47;101836.97;4945481;28;20395;-66
2022/02/02 09:53:32;;;;;;;39.63;6.40;;;;;;;19.69;74.79;101847.31;4977278;28;20053;-68
2022/02/02 10:09:58;;;;;;;35.53;6.70;;;;;;;17.69;96.65;101874.38;4977511;28;20039;-67
2022/02/02 10:15:16;;;;;;;23.77;5.80;;;;;;;18.00;98.88;101886.25;4939938;28;20513;-68
2022/02/02 10:17:43;;;;;;;31.37;6.10;;;;;;;18.27;86.41;101894.19;4977356;28;20121;-69
2022/02/02 10:20:17;;;;;;;27.13;6.20;;;;;;;19.11;80.90;101882.09;4977287;28;20054;-68
2022/02/02 10:22:47;;;;;;;34.00;7.17;;;;;;;19.57;78.19;101880.63;4977489;28;20495;-69
2022/02/02 10:25:32;;;;;;;24.87;5.43;;;;;;;19.82;72.50;101898.66;4976113;28;20039;-68
2022/02/02 10:28:21;;;;;;;26.23;4.30;;;;;;;20.62;69.37;101909.28;4975764;28;20035;-68
2022/02/02 10:30:49;;;;;;;42.20;6.70;;;;;;;21.61;59.15;101914.88;4968961;28;20125;-68
2022/02/02 10:33:20;;;;;;;32.30;5.53;;;;;;;21.79;58.18;101922.00;4976437;28;20034;-67
2022/02/02 10:35:49;;;;;;;29.40;5.27;;;;;;;21.91;56.43;101927.41;4976579;28;20047;-66
2022/02/02 10:38:21;;;;;;;24.43;5.10;;;;;;;21.06;60.61;101926.03;4959707;28;20463;-67
2022/02/02 10:41:01;;;;;;;28.20;6.63;;;;;;;19.50;68.10;101928.75;4943323;28;20478;-65
2022/02/02 10:43:38;;;;;;;31.90;6.47;;;;;;;19.09;75.66;101930.28;4960967;28;20422;-67
2022/02/02 10:49:04;;;;;;;36.00;5.70;;;;;;;18.30;77.54;101923.53;4976003;28;20463;-66
2022/02/02 10:56:46;;;;;;;28.40;5.63;;;;;;;20.37;65.09;101929.38;4959376;28;20039;-66
2022/02/02 11:01:49;;;;;;;22.47;4.70;;;;;;;23.53;51.46;101940.34;4976116;28;20039;-67
2022/02/02 11:07:01;;;;;;;24.07;4.67;;;;;;;24.23;44.03;101939.66;4976082;28;20039;-68
2022/02/02 11:09:28;;;;;;;24.30;4.97;;;;;;;24.20;43.29;101946.44;4958558;28;20068;-66
2022/02/02 11:11:56;;;;;;;24.93;5.77;;;;;;;23.67;45.12;101939.94;4975519;28;20149;-67
2022/02/02 11:14:41;;;;;;;25.20;5.00;;;;;;;24.35;43.71;101944.94;4975815;28;20055;-67
2022/02/02 11:17:20;;;;;;;18.47;4.87;;;;;;;24.75;40.59;101951.78;4976355;28;20042;-66
2022/02/02 11:19:49;;;;;;;31.10;6.13;;;;;;;23.99;44.27;101947.31;4958320;28;20506;-66
2022/02/02 11:22:32;;;;;;;24.57;4.50;;;;;;;25.02;40.83;101941.78;4958048;28;20043;-66
2022/02/02 11:25:04;;;;;;;19.30;4.70;;;;;;;24.27;40.95;101940.75;4975525;28;20041;-66
2022/02/02 11:27:38;;;;;;;17.73;4.07;;;;;;;24.79;40.80;101945.78;4958249;28;20038;-67
2022/02/02 11:30:08;;;;;;;19.27;3.53;;;;;;;25.89;44.14;101952.19;4975406;28;20125;-66
2022/02/02 11:32:45;;;;;;;19.20;4.53;;;;;;;26.18;39.84;101959.88;4975279;28;20074;-66
2022/02/02 11:35:49;;;;;;;23.93;5.07;;;;;;;26.91;37.05;101962.53;4974709;28;20039;-65
2022/02/02 11:38:28;;;;;;;16.50;3.67;;;;;;;27.47;39.88;101957.91;4975535;28;20038;-67
2022/02/02 11:41:03;;;;;;;19.45;4.13;;;;;;;27.67;37.59;101962.47;4958045;28;20074;-68
2022/02/02 11:43:48;;;;;;;22.77;5.18;;;;;;;26.88;36.71;101963.09;4974918;28;20103;-67
2022/02/02 11:46:53;;;;;;;18.30;3.88;;;;;;;27.14;38.48;101965.75;4975749;28;20057;-67
2022/02/02 11:49:21;;;;;;;19.77;4.70;;;;;;;25.84;38.72;101968.63;4975873;28;20049;-67
2022/02/02 11:51:47;;;;;;;25.08;5.05;;;;;;;26.66;39.79;101956.00;4957677;28;20116;-67
2022/02/02 11:54:15;;;;;;;20.95;5.18;;;;;;;26.11;39.45;101962.06;4975270;28;20097;-66
2022/02/02 11:57:04;;;;;;;23.03;4.80;;;;;;;26.54;36.08;101953.53;4974850;28;20035;-66
2022/02/02 11:59:35;;;;;;;18.73;4.43;;;;;;;26.70;36.76;101948.84;4975180;28;20039;-66
2022/02/02 12:02:17;;;;;;;14.55;3.67;;;;;;;27.57;41.02;101957.84;4957682;28;20384;-67
2022/02/02 12:07:56;;;;;;;18.17;3.78;;;;;;;28.10;36.07;101963.81;4975258;28;20093;-67
2022/02/02 12:47:19;;;;;;;13.43;3.45;;;;;;;29.48;39.00;101951.56;4973565;28;20455;-65
2022/02/02 12:58:10;;;;;;;39.38;17.58;;;;;;;30.93;28.15;101940.81;4957504;28;20043;-66
2022/02/02 13:03:12;;;;;;;17.80;3.97;;;;;;;30.72;28.84;101929.38;4956926;28;20402;-65
2022/02/02 13:05:40;;;;;;;23.00;8.18;;;;;;;30.22;30.59;101927.25;4973936;28;20500;-65
2022/02/02 13:08:06;;;;;;;15.43;5.63;;;;;;;30.37;34.05;101929.72;4974277;28;20049;-66
2022/02/02 13:10:34;;;;;;;29.95;9.15;;;;;;;31.38;29.53;101931.03;4974019;28;20081;-66
2022/02/02 13:13:12;;;;;;;18.25;7.20;;;;;;;31.82;28.28;101929.44;4956647;28;20046;-65
2022/02/02 13:23:53;;;;;;;31.75;9.25;;;;;;;31.12;29.25;101917.75;4974725;28;20052;-65
2022/02/02 13:29:20;;;;;;;22.73;6.85;;;;;;;30.76;29.68;101917.41;4973789;28;20039;-65
2022/02/02 13:37:31;;;;;;;19.27;6.13;;;;;;;31.53;27.04;101927.09;4973541;28;20120;-64
2022/02/02 14:00:24;;;;;;;18.85;4.22;;;;;;;30.75;25.31;101940.63;4969806;28;20059;-65
2022/02/02 14:06:18;;;;;;;14.93;4.03;;;;;;;31.19;26.12;101956.84;4962778;28;20162;-64
2022/02/02 14:32:59;;;;;;;14.57;4.18;;;;;;;27.98;29.25;101955.94;4976357;28;20058;-65
2022/02/02 14:35:24;;;;;;;;;;;;;;;28.19;28.85;101951.09;4959779;28;20035;-65
2022/02/02 14:37:52;;;;;;;18.50;3.85;;;;;;;28.40;29.69;101953.66;4976221;28;20287;-65
2022/02/02 14:40:36;;;;;;;22.77;4.73;;;;;;;28.34;28.68;101952.88;4959264;28;20054;-64
2022/02/02 14:43:04;;;;;;;14.77;3.53;;;;;;;28.47;28.47;101952.19;4976444;28;20042;-64
2022/02/02 14:45:34;;;;;;;16.33;3.47;;;;;;;27.80;28.86;101955.50;4976444;28;20043;-64
2022/02/02 14:48:08;;;;;;;25.33;4.37;;;;;;;24.82;32.03;101959.75;4976128;28;20514;-64
2022/02/02 14:51:04;;;;;;;17.53;3.40;;;;;;;24.35;33.27;101969.53;4976534;28;20061;-64
2022/02/02 14:53:31;;;;;;;21.43;4.80;;;;;;;22.81;36.20;101966.69;4975427;28;20050;-63
2022/02/02 15:30:42;;;;;;;21.70;5.50;;;;;;;20.94;49.93;101968.72;4975764;28;20617;-64
2022/02/02 15:33:12;;;;;;;27.63;4.77;;;;;;;20.42;51.88;101970.22;4975514;28;20105;-64
2022/02/02 15:35:40;;;;;;;25.43;4.70;;;;;;;20.28;53.52;101974.22;4975310;28;20308;-65
2022/02/02 15:38:15;;;;;;;26.00;5.30;;;;;;;20.36;53.52;101963.03;4958072;28;20295;-64
2022/02/02 15:40:48;;;;;;;24.10;4.73;;;;;;;20.06;53.67;101958.47;4975047;28;20641;-64
2022/02/02 16:00:44;;;;;;;27.23;5.30;;;;;;;19.22;62.28;101965.41;4960835;28;20764;-65
2022/02/02 16:02:12;;;;;;;21.60;5.27;;;;;;;19.13;63.77;101970.28;4950230;28;20364;-64
2022/02/02 16:04:39;;;;;;;21.17;5.50;;;;;;;19.01;64.14;101969.34;4942391;28;20340;-63
2022/02/02 16:07:07;;;;;;;27.65;5.53;;;;;;;18.96;65.76;101967.31;4957462;28;20283;-65
2022/02/02 16:09:52;;;;;;;18.40;5.50;;;;;;;18.92;66.56;101957.97;4957731;28;20066;-64
2022/02/02 16:15:03;;;;;;;27.65;5.93;;;;;;;18.56;70.18;101959.56;4958096;28;20277;-64
2022/02/02 16:36:17;;;;;;;29.77;6.77;;;;;;;16.35;100.00;101943.94;4977911;28;20269;-64
2022/02/02 16:38:56;;;;;;;25.67;6.10;;;;;;;16.39;100.00;101947.94;4979208;28;20741;-64
2022/02/02 16:44:06;;;;;;;23.90;5.63;;;;;;;16.05;100.00;101952.44;4976258;28;20312;-64
2022/02/02 16:46:31;;;;;;;29.05;6.63;;;;;;;16.04;100.00;101954.31;4975100;28;20312;-64
2022/02/02 16:48:57;;;;;;;25.97;6.07;;;;;;;15.98;100.00;101946.22;4957057;28;20121;-64
2022/02/02 16:51:22;;;;;;;22.43;7.87;;;;;;;16.22;100.00;101946.66;4957478;28;20470;-64
2022/02/02 16:53:50;;;;;;;20.77;6.30;;;;;;;16.11;100.00;101943.53;4974175;28;20503;-64
2022/02/02 16:56:28;;;;;;;16.80;5.83;;;;;;;16.52;100.00;101947.09;4957101;28;20741;-63
2022/02/02 17:31:32;;;;;;;19.60;5.50;;;;;;;15.12;100.00;101954.56;4959699;28;20289;-63
2022/02/02 17:34:06;;;;;;;17.27;6.17;;;;;;;15.51;100.00;101948.72;4976046;28;20339;-65
2022/02/02 17:36:40;;;;;;;19.67;5.80;;;;;;;15.52;100.00;101963.88;4977741;28;20284;-65
2022/02/02 17:39:12;;;;;;;16.80;6.00;;;;;;;15.54;100.00;101951.84;4977782;28;20795;-65
2022/02/02 17:44:19;;;;;;;15.53;6.13;;;;;;;15.61;100.00;101952.72;4959878;28;20765;-66
2022/02/02 18:01:26;;;;;;;9.87;3.87;;;;;;;15.22;100.00;101978.44;4960300;28;20368;-64
2022/02/02 18:03:58;;;;;;;11.77;3.70;;;;;;;15.09;100.00;101979.19;4948782;28;20280;-65
2022/02/02 18:19:41;;;;;;;12.23;3.90;;;;;;;15.52;100.00;101962.03;4960155;28;20796;-66
2022/02/02 18:22:07;;;;;;;10.20;4.53;;;;;;;15.06;100.00;101968.81;4977188;28;20298;-64
2022/02/02 18:24:43;;;;;;;7.53;3.97;;;;;;;15.46;100.00;101962.84;4976572;28;20280;-65
2022/02/02 18:27:18;;;;;;;12.77;4.80;;;;;;;15.52;100.00;101966.56;4960633;28;20289;-66
2022/02/02 18:30:00;;;;;;;11.97;4.70;;;;;;;15.49;100.00;101974.03;4959031;28;20277;-65
2022/02/02 18:32:42;;;;;;;14.00;5.57;;;;;;;15.19;100.00;101986.91;4976778;28;20296;-63
2022/02/02 18:35:13;;;;;;;11.83;5.40;;;;;;;15.22;100.00;101978.44;4976840;28;20734;-66
2022/02/02 18:45:37;;;;;;;11.00;5.97;;;;;;;15.00;100.00;101981.22;4975279;28;20134;-67
2022/02/02 18:56:21;;;;;;;21.63;10.90;;;;;;;14.52;100.00;101981.00;4976833;28;20288;-66
2022/02/02 19:01:46;;;;;;;26.70;10.17;;;;;;;15.23;100.00;101976.59;4942429;28;20130;-66
2022/02/02 19:30:53;;;;;;;17.30;7.13;;;;;;;15.14;100.00;101981.31;4910356;28;20284;-67
2022/02/02 19:37:14;;;;;;;19.47;9.70;;;;;;;14.21;100.00;101940.00;4976261;28;20375;-65
2022/02/02 19:40:16;;;;;;;17.67;9.13;;;;;;;14.32;100.00;101952.91;4975357;28;20283;-66
2022/02/02 20:09:50;;;;;;;34.10;13.40;;;;;;;14.76;100.00;101959.13;4958424;28;20280;-64
2022/02/02 20:12:12;;;;;;;38.87;16.80;;;;;;;14.67;100.00;101959.41;4957633;28;20657;-65
2022/02/02 20:14:39;;;;;;;38.20;14.93;;;;;;;14.88;100.00;101951.31;4958140;28;20311;-63
2022/02/02 20:17:06;;;;;;;35.97;16.10;;;;;;;14.83;100.00;101952.94;4941619;28;20756;-66
2022/02/02 20:19:32;;;;;;;39.17;16.17;;;;;;;14.62;100.00;101949.22;4957344;28;20053;-65
2022/02/02 20:21:59;;;;;;;38.13;16.40;;;;;;;15.03;100.00;101956.59;4941726;28;20336;-64
2022/02/02 20:24:34;;;;;;;41.63;16.47;;;;;;;14.67;100.00;101959.41;4957527;28;20554;-64
2022/02/02 20:27:00;;;;;;;48.63;17.53;;;;;;;14.52;100.00;101951.41;4942771;28;20287;-66
2022/02/02 20:29:25;;;;;;;44.15;18.52;;;;;;;14.68;100.00;101961.09;4941829;28;20356;-66
2022/02/02 20:31:51;;;;;;;45.63;17.40;;;;;;;14.58;100.00;101956.84;4957535;28;20463;-64
2022/02/02 20:34:16;;;;;;;49.33;19.40;;;;;;;14.94;100.00;101973.91;4974068;28;20760;-65
2022/02/02 20:36:42;;;;;;;46.47;18.53;;;;;;;14.99;100.00;101959.88;4957351;28;20061;-64
2022/02/02 20:39:17;;;;;;;44.33;17.45;;;;;;;14.56;100.00;101966.16;4957387;28;20126;-65
2022/02/02 20:41:43;;;;;;;45.97;18.33;;;;;;;14.87;100.00;101965.78;4957069;28;20121;-65
2022/02/02 20:44:19;;;;;;;49.33;19.50;;;;;;;14.38;100.00;101955.84;4941168;28;20359;-66
2022/02/02 21:00:49;;;;;;;58.50;21.97;;;;;;;13.86;100.00;101956.81;4974145;28;20043;-64
2022/02/02 21:06:20;;;;;;;70.75;21.25;;;;;;;13.69;100.00;101952.69;4946342;28;20055;-64
2022/02/02 21:11:56;;;;;;;69.28;23.40;;;;;;;13.88;100.00;101952.06;4960743;28;20133;-65
2022/02/02 21:14:24;;;;;;;62.72;23.05;;;;;;;13.89;100.00;101959.13;4978128;28;20156;-65
2022/02/02 21:16:50;;;;;;;63.83;22.50;;;;;;;14.00;100.00;101960.47;4961213;28;20046;-65
2022/02/02 21:19:34;;;;;;;74.50;24.98;;;;;;;13.72;100.00;101957.69;4977311;28;20410;-65
2022/02/02 21:22:02;;;;;;;71.15;22.95;;;;;;;14.08;100.00;101959.53;4961334;28;20035;-66
2022/02/02 21:29:24;;;;;;;69.15;25.45;;;;;;;13.76;100.00;101965.19;4978486;28;20039;-67
2022/02/02 21:31:51;;;;;;;68.50;25.27;;;;;;;13.44;100.00;101961.88;4944652;28;20074;-66
2022/02/02 21:34:22;;;;;;;82.60;27.60;;;;;;;13.88;100.00;101953.91;4978208;28;20038;-65
2022/02/02 21:36:48;;;;;;;87.85;28.98;;;;;;;13.78;100.00;101948.84;4961202;28;20055;-64
2022/02/02 21:39:22;;;;;;;87.75;30.10;;;;;;;13.83;100.00;101957.16;4978213;28;20101;-65
2022/02/02 21:41:50;;;;;;;80.70;28.73;;;;;;;13.71;100.00;101951.44;4978696;28;20035;-65
2022/02/02 21:44:16;;;;;;;86.40;30.10;;;;;;;13.83;100.00;101949.09;4978477;28;20368;-65
2022/02/02 21:46:42;;;;;;;92.18;32.00;;;;;;;13.85;100.00;101952.47;4960551;28;20514;-64
2022/02/02 21:49:15;;;;;;;85.35;28.58;;;;;;;13.86;100.00;101953.28;4977612;28;20074;-64
2022/02/02 21:51:51;;;;;;;95.45;34.03;;;;;;;14.11;100.00;101953.75;4976010;28;20050;-65
2022/02/02 21:54:17;;;;;;;95.90;32.30;;;;;;;13.47;100.00;101941.88;4959871;28;20047;-67
2022/02/02 21:56:43;;;;;;;86.43;31.13;;;;;;;13.73;100.00;101953.97;4977278;28;20470;-66
2022/02/02 21:59:08;;;;;;;82.73;30.07;;;;;;;13.59;100.00;101956.47;4960672;28;20039;-65
2022/02/02 22:01:34;;;;;;;80.73;28.73;;;;;;;13.85;100.00;101957.84;4977323;28;20046;-66
2022/02/02 22:03:59;;;;;;;85.35;30.55;;;;;;;13.74;100.00;101948.41;4977508;28;20122;-66
2022/02/02 22:06:25;;;;;;;76.63;29.58;;;;;;;13.94;100.00;101949.66;4960080;28;20058;-65
2022/02/02 22:08:50;;;;;;;76.80;29.45;;;;;;;14.02;100.00;101952.19;4944044;28;20423;-65
2022/02/02 22:11:16;;;;;;;79.87;30.13;;;;;;;13.98;100.00;101954.47;4976908;28;20042;-65
2022/02/02 22:13:46;;;;;;;70.30;27.48;;;;;;;13.72;100.00;101946.91;4976728;28;20051;-65
2022/02/02 22:16:17;;;;;;;72.50;27.02;;;;;;;13.75;100.00;101947.38;4976731;28;20133;-66
2022/02/02 22:18:45;;;;;;;77.43;28.60;;;;;;;13.50;100.00;101951.44;4959319;28;20041;-66
2022/02/02 22:21:10;;;;;;;63.33;26.52;;;;;;;13.43;100.00;101945.97;4944118;28;20042;-65
2022/02/02 22:23:38;;;;;;;63.93;26.23;;;;;;;13.38;100.00;101940.25;4976761;28;20055;-66
2022/02/02 22:26:04;;;;;;;64.13;26.00;;;;;;;13.57;100.00;101926.28;4976800;28;20109;-65